sensor_id;sensor_type;location;lat;lon;timestamp;P1;durP1;ratioP1;P2;durP2;ratioP2
62463;SDS011;48512;48.552;9.380;2023-09-12T00:02:19;15.27;;;8.82;;
62463;SDS011;48512;48.552;9.380;2023-09-12T00:04:45;15.73;;;8.98;;
62463;SDS011;48512;48.552;9.380;2023-09-12T00:07:11;21.63;;;9.35;;
62463;SDS011;48512;48.552;9.380;2023-09-12T00:09:37;15.55;;;9.02;;
62463;SDS011;48512;48.552;9.380;2023-09-12T00:12:03;16.83;;;9.40;;
62463;SDS011;48512;48.552;9.380;2023-09-12T00:14:30;19.45;;;8.85;;
62463;SDS011;48512;48.552;9.380;2023-09-12T00:16:56;15.82;;;9.48;;
62463;SDS011;48512;48.552;9.380;2023-09-12T00:19:22;15.82;;;8.57;;
62463;SDS011;48512;48.552;9.380;2023-09-12T00:21:49;17.83;;;9.30;;
62463;SDS011;48512;48.552;9.380;2023-09-12T00:24:15;17.23;;;10.02;;
62463;SDS011;48512;48.552;9.380;2023-09-12T00:26:41;12.35;;;8.90;;
62463;SDS011;48512;48.552;9.380;2023-09-12T00:29:08;20.35;;;9.80;;
62463;SDS011;48512;48.552;9.380;2023-09-12T00:31:34;19.25;;;9.13;;
62463;SDS011;48512;48.552;9.380;2023-09-12T00:34:00;17.13;;;8.63;;
62463;SDS011;48512;48.552;9.380;2023-09-12T00:36:26;15.45;;;9.13;;
62463;SDS011;48512;48.552;9.380;2023-09-12T00:38:52;17.92;;;9.10;;
62463;SDS011;48512;48.552;9.380;2023-09-12T00:41:18;23.23;;;9.30;;
62463;SDS011;48512;48.552;9.380;2023-09-12T00:43:44;20.95;;;9.98;;
62463;SDS011;48512;48.552;9.380;2023-09-12T00:46:10;20.67;;;9.15;;
62463;SDS011;48512;48.552;9.380;2023-09-12T00:48:36;18.15;;;8.50;;
62463;SDS011;48512;48.552;9.380;2023-09-12T00:51:03;19.33;;;8.90;;
62463;SDS011;48512;48.552;9.380;2023-09-12T00:53:31;14.60;;;8.27;;
62463;SDS011;48512;48.552;9.380;2023-09-12T00:55:57;13.73;;;8.75;;
62463;SDS011;48512;48.552;9.380;2023-09-12T00:58:25;15.88;;;8.98;;
62463;SDS011;48512;48.552;9.380;2023-09-12T01:00:52;17.48;;;9.30;;
62463;SDS011;48512;48.552;9.380;2023-09-12T01:03:18;15.60;;;8.77;;
62463;SDS011;48512;48.552;9.380;2023-09-12T01:05:44;19.92;;;9.88;;
62463;SDS011;48512;48.552;9.380;2023-09-12T01:08:11;17.50;;;9.48;;
62463;SDS011;48512;48.552;9.380;2023-09-12T01:10:37;19.27;;;9.38;;
62463;SDS011;48512;48.552;9.380;2023-09-12T01:13:04;19.15;;;9.23;;
62463;SDS011;48512;48.552;9.380;2023-09-12T01:15:30;16.20;;;8.80;;
62463;SDS011;48512;48.552;9.380;2023-09-12T01:17:56;16.23;;;8.70;;
62463;SDS011;48512;48.552;9.380;2023-09-12T01:20:33;18.65;;;9.95;;
62463;SDS011;48512;48.552;9.380;2023-09-12T01:28:22;21.33;;;8.60;;
62463;SDS011;48512;48.552;9.380;2023-09-12T01:30:51;17.98;;;8.57;;
62463;SDS011;48512;48.552;9.380;2023-09-12T01:33:18;18.85;;;9.57;;
62463;SDS011;48512;48.552;9.380;2023-09-12T01:35:46;15.98;;;8.88;;
62463;SDS011;48512;48.552;9.380;2023-09-12T01:38:13;24.40;;;9.13;;
62463;SDS011;48512;48.552;9.380;2023-09-12T01:40:43;16.48;;;9.60;;
62463;SDS011;48512;48.552;9.380;2023-09-12T01:43:13;16.00;;;9.02;;
62463;SDS011;48512;48.552;9.380;2023-09-12T01:45:43;14.30;;;9.48;;
62463;SDS011;48512;48.552;9.380;2023-09-12T01:48:11;17.90;;;10.10;;
62463;SDS011;48512;48.552;9.380;2023-09-12T01:50:38;13.70;;;8.27;;
62463;SDS011;48512;48.552;9.380;2023-09-12T01:53:05;19.08;;;9.43;;
62463;SDS011;48512;48.552;9.380;2023-09-12T01:55:31;15.60;;;9.43;;
62463;SDS011;48512;48.552;9.380;2023-09-12T01:57:57;19.00;;;9.55;;
62463;SDS011;48512;48.552;9.380;2023-09-12T02:00:24;16.23;;;8.93;;
62463;SDS011;48512;48.552;9.380;2023-09-12T02:02:50;16.05;;;9.65;;
62463;SDS011;48512;48.552;9.380;2023-09-12T02:05:17;20.40;;;9.45;;
62463;SDS011;48512;48.552;9.380;2023-09-12T02:07:45;19.98;;;9.55;;
62463;SDS011;48512;48.552;9.380;2023-09-12T02:10:12;16.45;;;8.95;;
62463;SDS011;48512;48.552;9.380;2023-09-12T02:12:39;17.95;;;9.20;;
62463;SDS011;48512;48.552;9.380;2023-09-12T02:15:06;15.80;;;9.02;;
62463;SDS011;48512;48.552;9.380;2023-09-12T02:17:34;15.40;;;9.48;;
62463;SDS011;48512;48.552;9.380;2023-09-12T02:20:01;19.38;;;9.10;;
62463;SDS011;48512;48.552;9.380;2023-09-12T02:22:27;16.98;;;9.88;;
62463;SDS011;48512;48.552;9.380;2023-09-12T02:24:53;22.95;;;9.88;;
62463;SDS011;48512;48.552;9.380;2023-09-12T02:27:19;19.45;;;9.80;;
62463;SDS011;48512;48.552;9.380;2023-09-12T02:29:45;16.15;;;9.02;;
62463;SDS011;48512;48.552;9.380;2023-09-12T02:32:11;18.30;;;9.82;;
62463;SDS011;48512;48.552;9.380;2023-09-12T02:34:37;18.25;;;10.88;;
62463;SDS011;48512;48.552;9.380;2023-09-12T02:37:03;19.33;;;9.80;;
62463;SDS011;48512;48.552;9.380;2023-09-12T02:39:29;18.73;;;10.27;;
62463;SDS011;48512;48.552;9.380;2023-09-12T02:41:55;18.65;;;10.13;;
62463;SDS011;48512;48.552;9.380;2023-09-12T02:44:21;20.77;;;9.98;;
62463;SDS011;48512;48.552;9.380;2023-09-12T02:46:47;25.50;;;11.15;;
62463;SDS011;48512;48.552;9.380;2023-09-12T02:49:15;14.63;;;9.18;;
62463;SDS011;48512;48.552;9.380;2023-09-12T02:51:41;21.83;;;10.35;;
62463;SDS011;48512;48.552;9.380;2023-09-12T02:54:07;17.25;;;10.07;;
62463;SDS011;48512;48.552;9.380;2023-09-12T02:56:34;22.15;;;10.45;;
62463;SDS011;48512;48.552;9.380;2023-09-12T02:59:00;14.73;;;9.50;;
62463;SDS011;48512;48.552;9.380;2023-09-12T03:01:26;21.20;;;11.07;;
62463;SDS011;48512;48.552;9.380;2023-09-12T03:03:55;25.85;;;11.80;;
62463;SDS011;48512;48.552;9.380;2023-09-12T03:06:21;24.77;;;12.52;;
62463;SDS011;48512;48.552;9.380;2023-09-12T03:08:47;20.33;;;11.80;;
62463;SDS011;48512;48.552;9.380;2023-09-12T03:11:13;23.13;;;11.60;;
62463;SDS011;48512;48.552;9.380;2023-09-12T03:13:40;17.50;;;10.55;;
62463;SDS011;48512;48.552;9.380;2023-09-12T03:16:10;17.98;;;10.38;;
62463;SDS011;48512;48.552;9.380;2023-09-12T03:18:37;18.63;;;10.25;;
62463;SDS011;48512;48.552;9.380;2023-09-12T03:21:04;20.20;;;10.13;;
62463;SDS011;48512;48.552;9.380;2023-09-12T03:23:30;18.10;;;9.75;;
62463;SDS011;48512;48.552;9.380;2023-09-12T03:26:05;15.82;;;9.88;;
62463;SDS011;48512;48.552;9.380;2023-09-12T03:28:32;19.88;;;9.68;;
62463;SDS011;48512;48.552;9.380;2023-09-12T03:31:09;22.50;;;9.98;;
62463;SDS011;48512;48.552;9.380;2023-09-12T03:33:40;18.95;;;10.80;;
62463;SDS011;48512;48.552;9.380;2023-09-12T03:36:08;21.48;;;10.48;;
62463;SDS011;48512;48.552;9.380;2023-09-12T03:38:34;22.05;;;10.43;;
62463;SDS011;48512;48.552;9.380;2023-09-12T03:41:01;16.00;;;10.38;;
62463;SDS011;48512;48.552;9.380;2023-09-12T03:43:28;27.70;;;12.68;;
62463;SDS011;48512;48.552;9.380;2023-09-12T03:45:55;22.75;;;11.23;;
62463;SDS011;48512;48.552;9.380;2023-09-12T03:48:21;21.05;;;12.02;;
62463;SDS011;48512;48.552;9.380;2023-09-12T03:50:48;18.35;;;10.50;;
62463;SDS011;48512;48.552;9.380;2023-09-12T03:53:14;21.30;;;11.23;;
62463;SDS011;48512;48.552;9.380;2023-09-12T03:55:40;16.60;;;10.32;;
62463;SDS011;48512;48.552;9.380;2023-09-12T03:58:07;22.30;;;10.77;;
62463;SDS011;48512;48.552;9.380;2023-09-12T04:00:33;19.17;;;11.65;;
62463;SDS011;48512;48.552;9.380;2023-09-12T04:02:59;23.65;;;10.73;;
62463;SDS011;48512;48.552;9.380;2023-09-12T04:05:26;22.25;;;10.82;;
62463;SDS011;48512;48.552;9.380;2023-09-12T04:07:52;23.85;;;11.00;;
62463;SDS011;48512;48.552;9.380;2023-09-12T04:10:21;19.05;;;10.98;;
62463;SDS011;48512;48.552;9.380;2023-09-12T04:15:14;23.67;;;11.57;;
62463;SDS011;48512;48.552;9.380;2023-09-12T04:17:40;24.48;;;14.07;;
62463;SDS011;48512;48.552;9.380;2023-09-12T04:20:07;20.73;;;11.75;;
62463;SDS011;48512;48.552;9.380;2023-09-12T04:22:34;20.98;;;11.43;;
62463;SDS011;48512;48.552;9.380;2023-09-12T04:25:00;20.63;;;11.48;;
62463;SDS011;48512;48.552;9.380;2023-09-12T04:27:27;19.77;;;11.05;;
62463;SDS011;48512;48.552;9.380;2023-09-12T04:29:53;28.40;;;11.40;;
62463;SDS011;48512;48.552;9.380;2023-09-12T04:32:19;19.05;;;11.38;;
62463;SDS011;48512;48.552;9.380;2023-09-12T04:34:49;18.85;;;11.82;;
62463;SDS011;48512;48.552;9.380;2023-09-12T04:37:16;18.85;;;11.68;;
62463;SDS011;48512;48.552;9.380;2023-09-12T04:39:44;22.10;;;12.10;;
62463;SDS011;48512;48.552;9.380;2023-09-12T04:42:10;27.38;;;12.32;;
62463;SDS011;48512;48.552;9.380;2023-09-12T04:44:38;25.25;;;12.15;;
62463;SDS011;48512;48.552;9.380;2023-09-12T04:47:05;22.20;;;11.63;;
62463;SDS011;48512;48.552;9.380;2023-09-12T04:49:32;26.13;;;12.32;;
62463;SDS011;48512;48.552;9.380;2023-09-12T04:51:58;20.48;;;13.02;;
62463;SDS011;48512;48.552;9.380;2023-09-12T04:54:24;25.05;;;12.70;;
62463;SDS011;48512;48.552;9.380;2023-09-12T04:56:50;24.40;;;11.55;;
62463;SDS011;48512;48.552;9.380;2023-09-12T04:59:16;19.23;;;11.40;;
62463;SDS011;48512;48.552;9.380;2023-09-12T05:01:42;21.27;;;12.23;;
62463;SDS011;48512;48.552;9.380;2023-09-12T05:04:08;24.30;;;12.50;;
62463;SDS011;48512;48.552;9.380;2023-09-12T05:06:35;21.65;;;12.23;;
62463;SDS011;48512;48.552;9.380;2023-09-12T05:09:01;21.83;;;11.98;;
62463;SDS011;48512;48.552;9.380;2023-09-12T05:11:28;20.52;;;12.73;;
62463;SDS011;48512;48.552;9.380;2023-09-12T05:13:54;27.92;;;13.02;;
62463;SDS011;48512;48.552;9.380;2023-09-12T05:16:21;24.70;;;12.18;;
62463;SDS011;48512;48.552;9.380;2023-09-12T05:18:47;21.23;;;12.13;;
62463;SDS011;48512;48.552;9.380;2023-09-12T05:21:15;25.65;;;12.43;;
62463;SDS011;48512;48.552;9.380;2023-09-12T05:23:41;24.33;;;12.63;;
62463;SDS011;48512;48.552;9.380;2023-09-12T05:26:08;23.02;;;12.73;;
62463;SDS011;48512;48.552;9.380;2023-09-12T05:28:34;25.17;;;13.05;;
62463;SDS011;48512;48.552;9.380;2023-09-12T05:31:00;28.05;;;13.93;;
62463;SDS011;48512;48.552;9.380;2023-09-12T05:33:26;26.23;;;12.88;;
62463;SDS011;48512;48.552;9.380;2023-09-12T05:35:53;21.05;;;13.00;;
62463;SDS011;48512;48.552;9.380;2023-09-12T05:38:19;25.38;;;13.88;;
62463;SDS011;48512;48.552;9.380;2023-09-12T05:40:45;28.00;;;14.07;;
62463;SDS011;48512;48.552;9.380;2023-09-12T05:43:12;23.45;;;13.15;;
62463;SDS011;48512;48.552;9.380;2023-09-12T05:45:38;27.52;;;14.63;;
62463;SDS011;48512;48.552;9.380;2023-09-12T05:48:04;25.67;;;14.63;;
62463;SDS011;48512;48.552;9.380;2023-09-12T05:50:31;23.90;;;13.73;;
62463;SDS011;48512;48.552;9.380;2023-09-12T05:52:57;32.92;;;15.43;;
62463;SDS011;48512;48.552;9.380;2023-09-12T05:55:24;30.17;;;15.82;;
62463;SDS011;48512;48.552;9.380;2023-09-12T05:57:50;29.85;;;14.38;;
62463;SDS011;48512;48.552;9.380;2023-09-12T06:00:21;24.80;;;12.25;;
62463;SDS011;48512;48.552;9.380;2023-09-12T06:02:47;24.77;;;13.38;;
62463;SDS011;48512;48.552;9.380;2023-09-12T06:05:14;30.85;;;14.50;;
62463;SDS011;48512;48.552;9.380;2023-09-12T06:07:41;25.92;;;14.27;;
62463;SDS011;48512;48.552;9.380;2023-09-12T06:10:07;24.70;;;13.40;;
62463;SDS011;48512;48.552;9.380;2023-09-12T06:12:34;26.17;;;13.93;;
62463;SDS011;48512;48.552;9.380;2023-09-12T06:15:02;29.00;;;14.57;;
62463;SDS011;48512;48.552;9.380;2023-09-12T06:17:30;18.10;;;12.32;;
62463;SDS011;48512;48.552;9.380;2023-09-12T06:19:57;25.70;;;13.50;;
62463;SDS011;48512;48.552;9.380;2023-09-12T06:22:23;28.98;;;13.85;;
62463;SDS011;48512;48.552;9.380;2023-09-12T06:24:50;28.00;;;13.90;;
62463;SDS011;48512;48.552;9.380;2023-09-12T06:27:16;22.42;;;13.15;;
62463;SDS011;48512;48.552;9.380;2023-09-12T06:29:45;23.90;;;13.60;;
62463;SDS011;48512;48.552;9.380;2023-09-12T06:32:15;26.08;;;14.75;;
62463;SDS011;48512;48.552;9.380;2023-09-12T06:34:43;28.42;;;13.18;;
62463;SDS011;48512;48.552;9.380;2023-09-12T06:37:10;30.13;;;14.20;;
62463;SDS011;48512;48.552;9.380;2023-09-12T06:39:37;26.38;;;12.98;;
62463;SDS011;48512;48.552;9.380;2023-09-12T06:42:03;23.77;;;12.52;;
62463;SDS011;48512;48.552;9.380;2023-09-12T06:44:29;19.38;;;11.98;;
62463;SDS011;48512;48.552;9.380;2023-09-12T06:46:55;23.40;;;12.43;;
62463;SDS011;48512;48.552;9.380;2023-09-12T06:49:22;32.95;;;13.77;;
62463;SDS011;48512;48.552;9.380;2023-09-12T06:51:48;28.27;;;14.30;;
62463;SDS011;48512;48.552;9.380;2023-09-12T06:54:14;30.58;;;13.35;;
62463;SDS011;48512;48.552;9.380;2023-09-12T06:56:40;24.85;;;12.65;;
62463;SDS011;48512;48.552;9.380;2023-09-12T06:59:08;20.40;;;13.15;;
62463;SDS011;48512;48.552;9.380;2023-09-12T07:01:34;23.90;;;13.57;;
62463;SDS011;48512;48.552;9.380;2023-09-12T07:04:00;19.98;;;12.57;;
62463;SDS011;48512;48.552;9.380;2023-09-12T07:06:27;26.27;;;12.93;;
62463;SDS011;48512;48.552;9.380;2023-09-12T07:08:53;28.55;;;12.15;;
62463;SDS011;48512;48.552;9.380;2023-09-12T07:11:19;26.98;;;13.00;;
62463;SDS011;48512;48.552;9.380;2023-09-12T07:13:45;28.27;;;13.63;;
62463;SDS011;48512;48.552;9.380;2023-09-12T07:16:11;23.58;;;12.63;;
62463;SDS011;48512;48.552;9.380;2023-09-12T07:18:38;29.70;;;12.55;;
62463;SDS011;48512;48.552;9.380;2023-09-12T07:21:04;28.08;;;12.68;;
62463;SDS011;48512;48.552;9.380;2023-09-12T07:23:31;23.10;;;12.40;;
62463;SDS011;48512;48.552;9.380;2023-09-12T07:25:58;26.13;;;12.85;;
62463;SDS011;48512;48.552;9.380;2023-09-12T07:28:25;22.45;;;12.27;;
62463;SDS011;48512;48.552;9.380;2023-09-12T07:30:51;25.75;;;12.32;;
62463;SDS011;48512;48.552;9.380;2023-09-12T07:33:19;22.10;;;12.25;;
62463;SDS011;48512;48.552;9.380;2023-09-12T07:35:45;19.90;;;11.77;;
62463;SDS011;48512;48.552;9.380;2023-09-12T07:38:12;24.80;;;13.50;;
62463;SDS011;48512;48.552;9.380;2023-09-12T07:40:41;22.67;;;12.52;;
62463;SDS011;48512;48.552;9.380;2023-09-12T07:43:08;17.88;;;11.82;;
62463;SDS011;48512;48.552;9.380;2023-09-12T07:45:35;25.30;;;13.85;;
62463;SDS011;48512;48.552;9.380;2023-09-12T07:48:05;27.58;;;13.25;;
62463;SDS011;48512;48.552;9.380;2023-09-12T07:50:33;25.73;;;12.65;;
62463;SDS011;48512;48.552;9.380;2023-09-12T07:52:59;22.55;;;12.55;;
62463;SDS011;48512;48.552;9.380;2023-09-12T07:55:26;27.10;;;12.63;;
62463;SDS011;48512;48.552;9.380;2023-09-12T07:57:55;24.83;;;12.20;;
62463;SDS011;48512;48.552;9.380;2023-09-12T08:00:22;33.42;;;13.63;;
62463;SDS011;48512;48.552;9.380;2023-09-12T08:02:48;34.65;;;13.00;;
62463;SDS011;48512;48.552;9.380;2023-09-12T08:05:14;27.23;;;12.10;;
62463;SDS011;48512;48.552;9.380;2023-09-12T08:07:41;21.73;;;12.60;;
62463;SDS011;48512;48.552;9.380;2023-09-12T08:10:07;19.52;;;12.38;;
62463;SDS011;48512;48.552;9.380;2023-09-12T08:12:33;19.30;;;12.00;;
62463;SDS011;48512;48.552;9.380;2023-09-12T08:15:00;24.40;;;13.00;;
62463;SDS011;48512;48.552;9.380;2023-09-12T08:17:26;17.90;;;12.70;;
62463;SDS011;48512;48.552;9.380;2023-09-12T08:19:53;19.02;;;12.25;;
62463;SDS011;48512;48.552;9.380;2023-09-12T08:22:19;20.77;;;12.77;;
62463;SDS011;48512;48.552;9.380;2023-09-12T08:24:45;24.20;;;13.18;;
62463;SDS011;48512;48.552;9.380;2023-09-12T08:27:11;20.23;;;12.82;;
62463;SDS011;48512;48.552;9.380;2023-09-12T08:29:38;18.98;;;12.77;;
62463;SDS011;48512;48.552;9.380;2023-09-12T08:32:04;19.67;;;12.57;;
62463;SDS011;48512;48.552;9.380;2023-09-12T08:34:31;21.15;;;13.07;;
62463;SDS011;48512;48.552;9.380;2023-09-12T08:36:57;18.55;;;12.38;;
62463;SDS011;48512;48.552;9.380;2023-09-12T08:39:23;19.23;;;12.95;;
62463;SDS011;48512;48.552;9.380;2023-09-12T08:41:51;22.98;;;13.10;;
62463;SDS011;48512;48.552;9.380;2023-09-12T08:44:19;22.60;;;14.15;;
62463;SDS011;48512;48.552;9.380;2023-09-12T08:46:47;19.02;;;13.38;;
62463;SDS011;48512;48.552;9.380;2023-09-12T08:49:13;20.15;;;12.60;;
62463;SDS011;48512;48.552;9.380;2023-09-12T08:51:41;24.38;;;14.00;;
62463;SDS011;48512;48.552;9.380;2023-09-12T08:54:07;21.15;;;12.65;;
62463;SDS011;48512;48.552;9.380;2023-09-12T08:56:36;22.40;;;13.18;;
62463;SDS011;48512;48.552;9.380;2023-09-12T08:59:03;22.60;;;13.83;;
62463;SDS011;48512;48.552;9.380;2023-09-12T09:01:30;18.73;;;13.50;;
62463;SDS011;48512;48.552;9.380;2023-09-12T09:03:57;24.17;;;14.10;;
62463;SDS011;48512;48.552;9.380;2023-09-12T09:06:23;21.08;;;14.30;;
62463;SDS011;48512;48.552;9.380;2023-09-12T09:08:51;23.00;;;13.93;;
62463;SDS011;48512;48.552;9.380;2023-09-12T09:11:18;20.98;;;13.40;;
62463;SDS011;48512;48.552;9.380;2023-09-12T09:13:44;19.10;;;13.35;;
62463;SDS011;48512;48.552;9.380;2023-09-12T09:16:17;20.15;;;12.52;;
62463;SDS011;48512;48.552;9.380;2023-09-12T09:21:21;22.52;;;13.82;;
62463;SDS011;48512;48.552;9.380;2023-09-12T09:23:51;17.70;;;13.35;;
62463;SDS011;48512;48.552;9.380;2023-09-12T09:26:21;20.48;;;13.02;;
62463;SDS011;48512;48.552;9.380;2023-09-12T09:29:03;17.38;;;12.18;;
62463;SDS011;48512;48.552;9.380;2023-09-12T09:31:30;18.60;;;12.52;;
62463;SDS011;48512;48.552;9.380;2023-09-12T09:33:58;17.42;;;11.77;;
62463;SDS011;48512;48.552;9.380;2023-09-12T09:36:24;13.95;;;11.40;;
62463;SDS011;48512;48.552;9.380;2023-09-12T09:38:51;14.18;;;11.40;;
62463;SDS011;48512;48.552;9.380;2023-09-12T09:41:20;14.25;;;10.32;;
62463;SDS011;48512;48.552;9.380;2023-09-12T09:43:50;11.52;;;9.88;;
62463;SDS011;48512;48.552;9.380;2023-09-12T09:46:17;16.38;;;10.68;;
62463;SDS011;48512;48.552;9.380;2023-09-12T09:48:50;14.15;;;10.20;;
62463;SDS011;48512;48.552;9.380;2023-09-12T09:51:17;14.00;;;10.50;;
62463;SDS011;48512;48.552;9.380;2023-09-12T09:53:44;12.45;;;10.02;;
62463;SDS011;48512;48.552;9.380;2023-09-12T09:56:14;15.00;;;10.23;;
62463;SDS011;48512;48.552;9.380;2023-09-12T09:58:51;16.23;;;10.82;;
62463;SDS011;48512;48.552;9.380;2023-09-12T10:01:18;16.40;;;9.25;;
62463;SDS011;48512;48.552;9.380;2023-09-12T10:06:16;13.98;;;10.15;;
62463;SDS011;48512;48.552;9.380;2023-09-12T10:08:44;13.40;;;9.80;;
62463;SDS011;48512;48.552;9.380;2023-09-12T10:11:13;11.68;;;9.43;;
62463;SDS011;48512;48.552;9.380;2023-09-12T10:13:43;12.55;;;9.35;;
62463;SDS011;48512;48.552;9.380;2023-09-12T10:16:15;12.73;;;8.98;;
62463;SDS011;48512;48.552;9.380;2023-09-12T10:21:59;10.88;;;8.85;;
62463;SDS011;48512;48.552;9.380;2023-09-12T10:24:30;10.73;;;8.98;;
62463;SDS011;48512;48.552;9.380;2023-09-12T10:26:57;11.55;;;9.25;;
62463;SDS011;48512;48.552;9.380;2023-09-12T10:29:25;13.25;;;8.82;;
62463;SDS011;48512;48.552;9.380;2023-09-12T10:31:52;11.85;;;8.70;;
62463;SDS011;48512;48.552;9.380;2023-09-12T10:34:18;9.68;;;8.20;;
62463;SDS011;48512;48.552;9.380;2023-09-12T10:36:45;13.02;;;9.15;;
62463;SDS011;48512;48.552;9.380;2023-09-12T10:39:12;12.13;;;8.90;;
62463;SDS011;48512;48.552;9.380;2023-09-12T10:41:40;10.50;;;8.70;;
62463;SDS011;48512;48.552;9.380;2023-09-12T10:44:10;10.30;;;9.23;;
62463;SDS011;48512;48.552;9.380;2023-09-12T10:46:40;14.13;;;9.30;;
62463;SDS011;48512;48.552;9.380;2023-09-12T10:49:07;13.30;;;8.52;;
62463;SDS011;48512;48.552;9.380;2023-09-12T10:51:38;10.82;;;8.23;;
62463;SDS011;48512;48.552;9.380;2023-09-12T10:54:06;12.93;;;9.07;;
62463;SDS011;48512;48.552;9.380;2023-09-12T10:56:34;13.63;;;10.65;;
62463;SDS011;48512;48.552;9.380;2023-09-12T11:01:36;12.35;;;8.50;;
62463;SDS011;48512;48.552;9.380;2023-09-12T11:06:48;13.07;;;8.05;;
62463;SDS011;48512;48.552;9.380;2023-09-12T11:09:21;10.90;;;8.20;;
62463;SDS011;48512;48.552;9.380;2023-09-12T11:11:49;11.90;;;8.73;;
62463;SDS011;48512;48.552;9.380;2023-09-12T11:14:21;11.02;;;8.68;;
62463;SDS011;48512;48.552;9.380;2023-09-12T11:17:11;11.93;;;8.77;;
62463;SDS011;48512;48.552;9.380;2023-09-12T11:19:49;10.80;;;8.00;;
62463;SDS011;48512;48.552;9.380;2023-09-12T11:22:28;12.60;;;8.70;;
62463;SDS011;48512;48.552;9.380;2023-09-12T11:24:56;14.38;;;8.63;;
62463;SDS011;48512;48.552;9.380;2023-09-12T11:27:43;13.45;;;8.65;;
62463;SDS011;48512;48.552;9.380;2023-09-12T11:30:31;14.88;;;8.48;;
62463;SDS011;48512;48.552;9.380;2023-09-12T11:32:58;9.98;;;7.97;;
62463;SDS011;48512;48.552;9.380;2023-09-12T11:35:26;16.02;;;8.45;;
62463;SDS011;48512;48.552;9.380;2023-09-12T11:37:54;10.38;;;8.48;;
62463;SDS011;48512;48.552;9.380;2023-09-12T11:43:03;11.38;;;8.70;;
62463;SDS011;48512;48.552;9.380;2023-09-12T11:45:30;10.73;;;9.02;;
62463;SDS011;48512;48.552;9.380;2023-09-12T11:47:58;16.75;;;8.77;;
62463;SDS011;48512;48.552;9.380;2023-09-12T11:53:10;10.68;;;8.55;;
62463;SDS011;48512;48.552;9.380;2023-09-12T11:58:13;11.18;;;9.32;;
62463;SDS011;48512;48.552;9.380;2023-09-12T12:00:44;24.98;;;9.73;;
62463;SDS011;48512;48.552;9.380;2023-09-12T12:03:15;13.02;;;8.90;;
62463;SDS011;48512;48.552;9.380;2023-09-12T12:05:41;12.00;;;8.18;;
62463;SDS011;48512;48.552;9.380;2023-09-12T12:08:08;16.00;;;8.95;;
62463;SDS011;48512;48.552;9.380;2023-09-12T12:10:37;10.43;;;8.45;;
62463;SDS011;48512;48.552;9.380;2023-09-12T12:13:05;12.60;;;8.68;;
62463;SDS011;48512;48.552;9.380;2023-09-12T12:15:32;13.82;;;8.45;;
62463;SDS011;48512;48.552;9.380;2023-09-12T12:17:58;10.75;;;7.78;;
62463;SDS011;48512;48.552;9.380;2023-09-12T12:20:24;10.85;;;8.35;;
62463;SDS011;48512;48.552;9.380;2023-09-12T12:22:50;11.35;;;8.20;;
62463;SDS011;48512;48.552;9.380;2023-09-12T12:25:17;10.13;;;8.65;;
62463;SDS011;48512;48.552;9.380;2023-09-12T12:27:43;9.50;;;7.88;;
62463;SDS011;48512;48.552;9.380;2023-09-12T12:30:11;9.25;;;8.25;;
62463;SDS011;48512;48.552;9.380;2023-09-12T12:35:18;11.65;;;8.60;;
62463;SDS011;48512;48.552;9.380;2023-09-12T12:37:45;11.85;;;7.95;;
62463;SDS011;48512;48.552;9.380;2023-09-12T12:40:13;13.05;;;8.95;;
62463;SDS011;48512;48.552;9.380;2023-09-12T12:42:40;9.93;;;8.00;;
62463;SDS011;48512;48.552;9.380;2023-09-12T12:45:13;10.48;;;8.02;;
62463;SDS011;48512;48.552;9.380;2023-09-12T12:47:40;13.80;;;8.30;;
62463;SDS011;48512;48.552;9.380;2023-09-12T12:50:16;11.90;;;8.48;;
62463;SDS011;48512;48.552;9.380;2023-09-12T12:52:46;11.88;;;8.48;;
62463;SDS011;48512;48.552;9.380;2023-09-12T12:55:14;10.35;;;9.07;;
62463;SDS011;48512;48.552;9.380;2023-09-12T12:57:43;10.60;;;8.15;;
62463;SDS011;48512;48.552;9.380;2023-09-12T13:00:10;13.57;;;8.35;;
62463;SDS011;48512;48.552;9.380;2023-09-12T13:02:39;10.80;;;8.27;;
62463;SDS011;48512;48.552;9.380;2023-09-12T13:05:07;11.90;;;8.15;;
62463;SDS011;48512;48.552;9.380;2023-09-12T13:07:54;13.10;;;7.60;;
62463;SDS011;48512;48.552;9.380;2023-09-12T13:10:21;9.88;;;8.10;;
62463;SDS011;48512;48.552;9.380;2023-09-12T13:12:48;9.53;;;7.87;;
62463;SDS011;48512;48.552;9.380;2023-09-12T13:15:16;10.63;;;8.63;;
62463;SDS011;48512;48.552;9.380;2023-09-12T13:17:45;8.63;;;7.65;;
62463;SDS011;48512;48.552;9.380;2023-09-12T13:20:11;10.07;;;8.00;;
62463;SDS011;48512;48.552;9.380;2023-09-12T13:22:37;9.68;;;7.95;;
62463;SDS011;48512;48.552;9.380;2023-09-12T13:25:04;12.93;;;8.48;;
62463;SDS011;48512;48.552;9.380;2023-09-12T13:27:31;9.65;;;8.25;;
62463;SDS011;48512;48.552;9.380;2023-09-12T13:29:57;10.23;;;7.63;;
62463;SDS011;48512;48.552;9.380;2023-09-12T13:32:23;10.50;;;8.00;;
62463;SDS011;48512;48.552;9.380;2023-09-12T13:34:49;9.43;;;8.10;;
62463;SDS011;48512;48.552;9.380;2023-09-12T13:37:16;11.48;;;8.30;;
62463;SDS011;48512;48.552;9.380;2023-09-12T13:39:42;9.57;;;7.25;;
62463;SDS011;48512;48.552;9.380;2023-09-12T13:42:15;10.95;;;8.18;;
62463;SDS011;48512;48.552;9.380;2023-09-12T13:44:46;10.88;;;8.27;;
62463;SDS011;48512;48.552;9.380;2023-09-12T13:47:12;13.47;;;7.83;;
62463;SDS011;48512;48.552;9.380;2023-09-12T13:49:39;9.50;;;8.05;;
62463;SDS011;48512;48.552;9.380;2023-09-12T13:52:05;12.07;;;8.25;;
62463;SDS011;48512;48.552;9.380;2023-09-12T13:54:31;9.45;;;7.80;;
62463;SDS011;48512;48.552;9.380;2023-09-12T13:56:57;8.75;;;7.78;;
62463;SDS011;48512;48.552;9.380;2023-09-12T13:59:23;9.88;;;8.65;;
62463;SDS011;48512;48.552;9.380;2023-09-12T14:01:50;13.30;;;8.20;;
62463;SDS011;48512;48.552;9.380;2023-09-12T14:04:16;10.98;;;8.38;;
62463;SDS011;48512;48.552;9.380;2023-09-12T14:06:43;11.43;;;8.27;;
62463;SDS011;48512;48.552;9.380;2023-09-12T14:09:09;12.02;;;8.30;;
62463;SDS011;48512;48.552;9.380;2023-09-12T14:11:35;9.57;;;8.18;;
62463;SDS011;48512;48.552;9.380;2023-09-12T14:14:02;11.57;;;8.70;;
62463;SDS011;48512;48.552;9.380;2023-09-12T14:16:29;11.68;;;8.73;;
62463;SDS011;48512;48.552;9.380;2023-09-12T14:18:56;11.40;;;8.68;;
62463;SDS011;48512;48.552;9.380;2023-09-12T14:21:22;9.88;;;8.77;;
62463;SDS011;48512;48.552;9.380;2023-09-12T14:23:48;10.50;;;8.80;;
62463;SDS011;48512;48.552;9.380;2023-09-12T14:26:15;9.38;;;8.38;;
62463;SDS011;48512;48.552;9.380;2023-09-12T14:28:41;16.45;;;8.88;;
62463;SDS011;48512;48.552;9.380;2023-09-12T14:31:07;12.73;;;9.45;;
62463;SDS011;48512;48.552;9.380;2023-09-12T14:33:42;9.80;;;8.75;;
62463;SDS011;48512;48.552;9.380;2023-09-12T14:36:08;14.98;;;9.20;;
62463;SDS011;48512;48.552;9.380;2023-09-12T14:38:35;14.77;;;9.32;;
62463;SDS011;48512;48.552;9.380;2023-09-12T14:41:01;10.38;;;8.77;;
62463;SDS011;48512;48.552;9.380;2023-09-12T14:43:28;12.07;;;8.80;;
62463;SDS011;48512;48.552;9.380;2023-09-12T14:45:54;12.85;;;8.98;;
62463;SDS011;48512;48.552;9.380;2023-09-12T14:48:21;11.32;;;9.23;;
62463;SDS011;48512;48.552;9.380;2023-09-12T14:50:47;11.55;;;9.80;;
62463;SDS011;48512;48.552;9.380;2023-09-12T14:53:16;12.35;;;9.65;;
62463;SDS011;48512;48.552;9.380;2023-09-12T14:55:42;10.73;;;9.55;;
62463;SDS011;48512;48.552;9.380;2023-09-12T14:58:09;14.10;;;10.40;;
62463;SDS011;48512;48.552;9.380;2023-09-12T15:00:35;11.27;;;9.57;;
62463;SDS011;48512;48.552;9.380;2023-09-12T15:03:02;13.13;;;9.15;;